Time;durP1;ratioP1;P1;durP2;ratioP2;P2;SDS_P1;SDS_P2;PMS_P1;PMS_P2;Temp;Humidity;BMP_temperature;BMP_pressure;BME280_temperature;BME280_humidity;BME280_pressure;Samples;Min_cycle;Max_cycle;Signal;HPM_P1;HPM_P2
2022/05/02 00:00:46;;;;;;;23.90;21.60;;;;;;;10.09;57.60;98119.94;107049;1286;22686;-92
2022/05/02 00:03:14;;;;;;;21.30;19.30;;;;;;;10.16;57.29;98114.58;107055;1284;26658;-94
2022/05/02 00:05:43;;;;;;;56.90;52.40;;;;;;;10.20;57.35;98116.72;106941;1285;24191;-93
2022/05/02 00:08:11;;;;;;;37.10;33.90;;;;;;;10.21;57.69;98113.21;107386;1286;22578;-92
2022/05/02 00:10:39;;;;;;;25.70;23.40;;;;;;;10.23;58.04;98111.89;107877;1284;22649;-92
2022/05/02 00:13:09;;;;;;;24.30;22.00;;;;;;;10.24;57.70;98107.94;108643;1286;22623;-90
2022/05/02 00:15:37;;;;;;;24.00;20.80;;;;;;;10.23;57.81;98104.13;108532;1285;22555;-93
2022/05/02 00:18:07;;;;;;;22.30;20.30;;;;;;;10.24;58.00;98104.49;108043;1285;23059;-95
2022/05/02 00:20:36;;;;;;;23.90;21.60;;;;;;;10.24;57.86;98102.67;107978;1286;22685;-91
2022/05/02 00:23:06;;;;;;;24.50;21.90;;;;;;;10.23;58.14;98101.39;108132;1286;22578;-92
2022/05/02 00:25:35;;;;;;;22.40;20.20;;;;;;;10.25;58.32;98104.30;107952;1286;22683;-93
2022/05/02 00:28:03;;;;;;;22.60;20.50;;;;;;;10.28;58.04;98102.27;107787;1286;22564;-95
2022/05/02 00:30:31;;;;;;;21.20;18.90;;;;;;;10.31;58.32;98104.33;108018;1286;22688;-95
2022/05/02 00:32:59;;;;;;;30.40;27.60;;;;;;;10.33;58.27;98105.92;105739;1286;24744;-91
2022/05/02 00:35:27;;;;;;;25.10;22.80;;;;;;;10.31;57.98;98104.42;106827;1284;22665;-87
2022/05/02 00:37:55;;;;;;;22.10;20.00;;;;;;;10.24;58.02;98101.27;107861;1286;22560;-93
2022/05/02 00:40:23;;;;;;;23.00;20.70;;;;;;;10.20;58.32;98100.36;107727;1273;22538;-92
2022/05/02 00:42:51;;;;;;;23.10;20.90;;;;;;;10.18;57.93;98099.56;106624;1285;23020;-93
2022/05/02 00:45:20;;;;;;;25.00;22.60;;;;;;;10.15;58.28;98097.61;106842;1286;22555;-93
2022/05/02 00:47:53;;;;;;;26.70;24.10;;;;;;;10.12;58.25;98094.33;106948;1284;22581;-93
2022/05/02 00:50:35;;;;;;;30.20;27.50;;;;;;;10.10;58.98;98094.63;106909;1286;22546;-91
2022/05/02 00:53:06;;;;;;;21.70;19.60;;;;;;;10.03;58.62;98092.98;107093;1284;22548;-94
2022/05/02 00:55:34;;;;;;;21.90;19.60;;;;;;;9.95;59.03;98096.65;107398;1284;22593;-93
2022/05/02 00:58:02;;;;;;;20.10;18.30;;;;;;;9.83;59.15;98099.92;107734;1284;22568;-93
2022/05/02 01:00:33;;;;;;;21.50;19.60;;;;;;;9.71;59.76;98102.39;107217;1285;22609;-95
2022/05/02 01:03:09;;;;;;;22.30;20.00;;;;;;;9.62;60.23;98104.55;106803;1284;22557;-92
2022/05/02 01:08:35;;;;;;;24.70;22.10;;;;;;;9.64;59.99;98105.16;107803;1284;22624;-93
2022/05/02 01:11:03;;;;;;;29.70;26.30;;;;;;;9.71;60.02;98102.70;107349;1286;22562;-91
2022/05/02 01:13:39;;;;;;;25.60;22.80;;;;;;;9.79;59.74;98106.81;107216;1284;22565;-93
2022/05/02 01:16:12;;;;;;;25.60;22.80;;;;;;;9.86;59.43;98102.79;107009;1286;22565;-93
2022/05/02 01:18:42;;;;;;;23.00;20.70;;;;;;;9.91;59.64;98097.98;107329;1284;22573;-92
2022/05/02 01:21:14;;;;;;;22.10;19.30;;;;;;;9.94;59.36;98100.45;107822;1285;22601;-91
2022/05/02 01:23:44;;;;;;;24.50;21.50;;;;;;;9.90;59.24;98102.69;107651;1284;25238;-92
2022/05/02 01:26:12;;;;;;;23.30;21.10;;;;;;;9.79;59.78;98105.73;107262;1284;22570;-94
2022/05/02 01:28:45;;;;;;;23.00;20.90;;;;;;;9.70;60.10;98100.52;107401;1284;22489;-95
2022/05/02 01:31:15;;;;;;;20.50;18.40;;;;;;;9.65;59.90;98098.00;107264;1286;26057;-94
2022/05/02 01:33:43;;;;;;;19.80;18.00;;;;;;;9.61;59.82;98096.81;107958;1284;24241;-94
2022/05/02 01:36:11;;;;;;;19.80;17.90;;;;;;;9.61;60.00;98095.08;108109;1285;22547;-92
2022/05/02 01:38:39;;;;;;;20.80;18.80;;;;;;;9.66;59.89;98091.09;107609;1286;22591;-95
2022/05/02 01:41:08;;;;;;;18.10;16.20;;;;;;;9.75;59.74;98088.94;107809;1286;22547;-92
2022/05/02 01:43:37;;;;;;;19.50;17.80;;;;;;;9.78;59.83;98087.14;107247;1285;23885;-89
2022/05/02 01:46:06;;;;;;;19.10;17.20;;;;;;;9.77;59.53;98087.30;106044;1286;22573;-91
2022/05/02 01:48:35;;;;;;;19.20;17.40;;;;;;;9.79;59.65;98089.38;106890;1286;22619;-87
2022/05/02 01:51:03;;;;;;;25.10;22.70;;;;;;;9.81;59.32;98087.38;108584;1286;22551;-92
2022/05/02 01:53:31;;;;;;;20.40;18.40;;;;;;;9.80;59.35;98090.17;107272;1286;25554;-92
2022/05/02 01:56:00;;;;;;;18.30;16.70;;;;;;;9.76;59.50;98091.57;107116;1285;22495;-94
2022/05/02 01:58:27;;;;;;;19.20;17.40;;;;;;;9.73;59.28;98087.73;107646;1286;22536;-92
2022/05/02 02:00:55;;;;;;;18.30;16.60;;;;;;;9.71;59.61;98086.63;107678;1286;22541;-88
2022/05/02 02:03:23;;;;;;;18.00;16.30;;;;;;;9.70;59.70;98086.35;107567;1286;22489;-94
2022/05/02 02:05:52;;;;;;;19.30;17.40;;;;;;;9.71;59.39;98086.34;107666;1286;22565;-93
2022/05/02 02:08:39;;;;;;;20.30;18.40;;;;;;;9.73;59.28;98083.57;107045;1285;22687;-92
2022/05/02 02:11:09;;;;;;;19.70;17.60;;;;;;;9.75;59.28;98085.98;107069;1286;22551;-93
2022/05/02 02:13:38;;;;;;;20.60;18.40;;;;;;;9.74;59.15;98082.71;107278;1286;22622;-92
2022/05/02 02:16:09;;;;;;;31.60;28.60;;;;;;;9.64;58.93;98086.77;107694;1286;22689;-89
2022/05/02 02:18:38;;;;;;;51.20;46.10;;;;;;;9.44;59.30;98083.66;107791;1285;22697;-92
2022/05/02 02:21:09;;;;;;;44.70;40.20;;;;;;;9.34;59.52;98084.46;107953;1285;23983;-92
2022/05/02 02:23:39;;;;;;;43.20;39.20;;;;;;;9.29;59.61;98081.52;107172;1286;22700;-90
2022/05/02 02:26:07;;;;;;;34.60;31.30;;;;;;;9.25;59.70;98076.61;106028;1286;22590;-91
2022/05/02 02:28:35;;;;;;;29.30;26.50;;;;;;;9.21;59.71;98078.20;107046;1285;25384;-91
2022/05/02 02:31:03;;;;;;;25.70;23.20;;;;;;;9.14;59.87;98078.70;107508;1286;23832;-95
2022/05/02 02:33:31;;;;;;;22.80;20.60;;;;;;;9.06;59.71;98078.40;107477;1286;22717;-91
2022/05/02 02:35:59;;;;;;;25.30;22.50;;;;;;;9.00;60.04;98075.78;108615;1275;22577;-94
2022/05/02 02:38:27;;;;;;;44.10;40.00;;;;;;;8.93;59.88;98079.08;108341;1286;23268;-94
2022/05/02 02:40:55;;;;;;;25.70;23.10;;;;;;;8.83;60.17;98080.66;108465;1284;22638;-93
2022/05/02 02:43:22;;;;;;;21.80;19.50;;;;;;;8.72;60.32;98082.82;108527;1284;22841;-93
2022/05/02 02:45:50;;;;;;;20.70;18.50;;;;;;;8.60;60.39;98081.73;107844;1284;22561;-91
2022/05/02 02:48:18;;;;;;;22.80;20.50;;;;;;;8.47;60.45;98083.81;107092;1284;22584;-91
2022/05/02 02:50:48;;;;;;;30.10;27.00;;;;;;;8.33;60.39;98083.84;107426;1284;22556;-93
2022/05/02 02:53:16;;;;;;;30.40;27.50;;;;;;;8.20;60.45;98081.13;108005;1284;22599;-89
2022/05/02 02:55:44;;;;;;;24.90;22.30;;;;;;;8.10;60.45;98078.23;108783;1284;22512;-85
2022/05/02 02:58:12;;;;;;;21.10;19.10;;;;;;;7.99;60.48;98079.91;108922;1284;22595;-89
2022/05/02 03:00:40;;;;;;;16.50;15.00;;;;;;;7.90;60.70;98081.25;108686;1286;23028;-90
2022/05/02 03:03:08;;;;;;;17.10;15.50;;;;;;;7.85;61.10;98080.15;108814;1284;22979;-94
2022/05/02 03:08:44;;;;;;;17.50;15.10;;;;;;;7.90;61.17;98076.42;107284;1291;22601;-91
2022/05/02 03:11:19;;;;;;;16.60;14.80;;;;;;;7.91;61.18;98076.31;106470;1292;22555;-91
2022/05/02 03:13:47;;;;;;;17.70;15.90;;;;;;;7.94;61.13;98073.60;106342;1292;22821;-92
2022/05/02 03:16:15;;;;;;;18.70;17.00;;;;;;;7.97;61.24;98078.36;106497;1292;23085;-92
2022/05/02 03:18:43;;;;;;;16.80;15.20;;;;;;;7.99;61.19;98074.38;106840;1292;22564;-94
2022/05/02 03:21:11;;;;;;;32.60;29.40;;;;;;;8.01;61.11;98077.22;106373;1292;22751;-92
2022/05/02 03:23:39;;;;;;;30.10;27.10;;;;;;;7.97;60.95;98076.54;106379;1292;22729;-93
2022/05/02 03:26:07;;;;;;;25.00;22.40;;;;;;;7.88;60.99;98078.04;106667;1292;22982;-86
2022/05/02 03:28:35;;;;;;;22.40;20.10;;;;;;;7.79;61.05;98072.55;107925;1292;22680;-88
2022/05/02 03:31:03;;;;;;;20.90;18.50;;;;;;;7.75;61.29;98069.84;107296;1291;22559;-92
2022/05/02 03:33:32;;;;;;;19.30;17.40;;;;;;;7.73;61.15;98071.45;105992;1292;23203;-89
2022/05/02 03:36:00;;;;;;;20.50;18.40;;;;;;;7.70;61.40;98069.81;105951;1293;22660;-93
2022/05/02 03:38:28;;;;;;;21.20;19.20;;;;;;;7.67;61.62;98071.38;106059;1294;23627;-93
2022/05/02 03:40:55;;;;;;;18.50;16.80;;;;;;;7.67;61.80;98071.12;106592;1286;22766;-93
2022/05/02 03:43:23;;;;;;;19.90;17.70;;;;;;;7.69;61.94;98072.61;106188;1287;22583;-94
2022/05/02 03:45:51;;;;;;;17.50;15.60;;;;;;;7.70;61.67;98069.11;106116;1287;22581;-91
2022/05/02 03:48:19;;;;;;;16.10;14.40;;;;;;;7.70;61.89;98070.18;106258;1287;22536;-91
2022/05/02 03:50:47;;;;;;;18.60;16.90;;;;;;;7.71;61.95;98068.73;106538;1287;23377;-93
2022/05/02 03:53:17;;;;;;;16.80;15.10;;;;;;;7.72;61.93;98069.20;106888;1287;22843;-92
2022/05/02 03:55:45;;;;;;;17.70;16.10;;;;;;;7.73;61.79;98072.05;107313;1287;24387;-93
2022/05/02 03:58:13;;;;;;;18.20;16.60;;;;;;;7.76;61.79;98066.99;107720;1286;22594;-95
2022/05/02 04:00:41;;;;;;;18.00;16.30;;;;;;;7.75;61.46;98069.15;107092;1289;23169;-91
2022/05/02 04:03:09;;;;;;;24.70;22.20;;;;;;;7.72;61.92;98072.11;106454;1287;22925;-93
2022/05/02 04:05:37;;;;;;;21.10;18.70;;;;;;;7.72;61.83;98077.36;107120;1287;22590;-92
2022/05/02 04:08:05;;;;;;;25.50;20.80;;;;;;;7.72;61.63;98076.08;107413;1287;22631;-90
2022/05/02 04:10:33;;;;;;;24.40;22.30;;;;;;;7.72;61.98;98076.50;107164;1287;22633;-92
2022/05/02 04:13:01;;;;;;;20.10;18.10;;;;;;;7.76;62.17;98080.85;106716;1287;22601;-91
2022/05/02 04:15:29;;;;;;;25.30;22.00;;;;;;;7.80;62.27;98076.41;107051;1287;22587;-93
2022/05/02 04:17:58;;;;;;;23.40;21.10;;;;;;;7.84;62.15;98081.45;107280;1286;22686;-92
2022/05/02 04:20:26;;;;;;;25.40;21.80;;;;;;;7.89;62.21;98082.33;107521;1287;22498;-92
2022/05/02 04:22:54;;;;;;;29.20;26.50;;;;;;;7.94;62.29;98080.95;107524;1286;22566;-93
2022/05/02 04:25:21;;;;;;;26.00;23.50;;;;;;;7.99;62.25;98085.05;107456;1287;25293;-90
2022/05/02 04:27:49;;;;;;;19.10;17.30;;;;;;;8.03;62.22;98085.31;107396;1286;22563;-93
2022/05/02 04:30:17;;;;;;;18.80;17.00;;;;;;;8.04;62.16;98086.96;107085;1287;22576;-92
2022/05/02 04:32:45;;;;;;;21.40;18.40;;;;;;;8.03;62.04;98088.48;106711;1287;25373;-91
2022/05/02 04:35:13;;;;;;;32.20;29.10;;;;;;;8.05;62.52;98087.33;107327;1287;22755;-94
2022/05/02 04:37:41;;;;;;;29.10;26.20;;;;;;;8.11;62.41;98088.54;107661;1287;22556;-92
2022/05/02 04:40:09;;;;;;;30.40;27.20;;;;;;;8.17;62.66;98088.92;108042;1287;22550;-94
2022/05/02 04:42:38;;;;;;;30.10;25.40;;;;;;;8.28;62.36;98090.63;107851;1287;22848;-92
2022/05/02 04:45:06;;;;;;;30.60;25.50;;;;;;;8.42;62.53;98090.19;107333;1286;22650;-93
2022/05/02 04:47:34;;;;;;;26.20;23.50;;;;;;;8.58;62.84;98093.72;106925;1287;24189;-93
2022/05/02 04:50:04;;;;;;;26.40;23.80;;;;;;;8.72;62.86;98090.48;106971;1287;23966;-93
2022/05/02 04:52:32;;;;;;;25.80;23.30;;;;;;;8.87;62.67;98089.66;107295;1287;22596;-92
2022/05/02 04:55:00;;;;;;;24.10;21.70;;;;;;;9.02;62.82;98085.83;107384;1287;23871;-93
2022/05/02 04:57:28;;;;;;;23.20;21.00;;;;;;;9.17;62.72;98090.52;107536;1287;23989;-94
2022/05/02 04:59:55;;;;;;;25.60;22.70;;;;;;;9.31;62.69;98088.05;107360;1287;22605;-92
2022/05/02 05:02:24;;;;;;;24.10;21.50;;;;;;;9.44;62.52;98088.45;107243;1287;22638;-93
2022/05/02 05:04:52;;;;;;;24.90;22.50;;;;;;;9.57;62.72;98087.11;107913;1287;22575;-88
2022/05/02 05:07:20;;;;;;;25.00;22.60;;;;;;;9.67;62.59;98089.25;108293;1287;22688;-94
2022/05/02 05:09:48;;;;;;;25.80;22.60;;;;;;;9.78;62.44;98088.42;107641;1287;22663;-92
2022/05/02 05:12:34;;;;;;;23.80;21.50;;;;;;;9.89;62.83;98088.31;106931;1287;22709;-91
2022/05/02 05:18:24;;;;;;;21.10;19.00;;;;;;;10.14;62.28;98089.55;107025;1284;22494;-93
2022/05/02 05:21:05;;;;;;;22.40;20.30;;;;;;;10.25;62.45;98088.98;106602;1286;23415;-94
2022/05/02 05:30:43;;;;;;;20.10;18.00;;;;;;;10.76;62.06;98084.00;106702;1287;26660;-93
2022/05/02 05:33:27;;;;;;;18.90;16.40;;;;;;;10.94;61.97;98083.27;106527;1286;25498;-93
2022/05/02 05:36:09;;;;;;;15.40;13.90;;;;;;;11.11;61.76;98084.69;106430;1287;22548;-92
2022/05/02 05:38:58;;;;;;;14.50;13.00;;;;;;;11.30;61.53;98081.86;106304;1287;22757;-93
2022/05/02 05:45:01;;;;;;;14.30;12.70;;;;;;;11.74;60.63;98083.98;107097;1286;22759;-94
2022/05/02 05:47:44;;;;;;;12.60;11.40;;;;;;;11.95;60.24;98084.33;106565;1287;22586;-95
2022/05/02 05:50:36;;;;;;;13.40;12.10;;;;;;;12.14;59.87;98084.77;107463;1287;22560;-93
2022/05/02 05:56:34;;;;;;;14.60;13.10;;;;;;;12.55;59.18;98082.23;107110;1287;22594;-92
2022/05/02 05:59:10;;;;;;;13.50;11.90;;;;;;;12.77;58.86;98078.27;106508;1287;25716;-93
2022/05/02 06:01:50;;;;;;;15.60;13.20;;;;;;;12.96;58.53;98079.31;106837;1287;22556;-92
2022/05/02 06:04:19;;;;;;;15.00;13.00;;;;;;;13.14;58.31;98078.36;106894;1287;23146;-91
2022/05/02 06:06:47;;;;;;;14.30;12.80;;;;;;;13.29;58.08;98074.69;108020;1287;22684;-91
2022/05/02 06:09:17;;;;;;;15.20;13.60;;;;;;;13.44;57.69;98078.19;107916;1286;22565;-92
2022/05/02 06:11:46;;;;;;;15.70;14.10;;;;;;;13.57;57.42;98072.52;107945;1287;22549;-90
2022/05/02 06:14:15;;;;;;;22.60;13.60;;;;;;;13.72;57.39;98074.29;107972;1287;22651;-91
2022/05/02 06:19:36;;;;;;;15.60;13.10;;;;;;;14.00;56.87;98071.50;108025;1273;23321;-93
2022/05/02 06:22:05;;;;;;;15.60;12.00;;;;;;;14.13;56.28;98075.33;106852;1283;22551;-95
2022/05/02 06:24:34;;;;;;;16.50;11.60;;;;;;;14.21;55.95;98077.10;107222;1283;22557;-93
2022/05/02 06:27:04;;;;;;;13.00;11.70;;;;;;;14.31;55.49;98076.40;107145;1283;25847;-93
2022/05/02 06:29:35;;;;;;;13.30;11.80;;;;;;;14.41;55.07;98078.29;107199;1283;23389;-91
2022/05/02 06:32:15;;;;;;;14.20;12.80;;;;;;;14.50;54.76;98079.56;107134;1283;22790;-94
2022/05/02 06:34:43;;;;;;;17.10;12.20;;;;;;;14.58;54.75;98077.23;107264;1282;22652;-93
2022/05/02 06:40:42;;;;;;;13.80;11.60;;;;;;;14.84;54.43;98081.06;106505;1287;22768;-95
2022/05/02 06:46:36;;;;;;;14.90;11.70;;;;;;;15.19;53.83;98077.05;108094;1284;22634;-93
2022/05/02 06:49:12;;;;;;;12.90;11.50;;;;;;;15.38;53.04;98073.97;106891;1284;23704;-92
2022/05/02 06:51:43;;;;;;;14.50;12.80;;;;;;;15.57;53.11;98075.65;106677;1284;22945;-91
2022/05/02 06:54:38;;;;;;;12.90;11.70;;;;;;;15.74;52.82;98075.95;106982;1284;24213;-93
2022/05/02 06:57:15;;;;;;;;;;;;;;;15.86;52.61;98070.48;106221;1286;22587;-94
2022/05/02 06:59:56;;;;;;;13.10;11.80;;;;;;;15.93;52.10;98070.46;106526;1285;22795;-92
2022/05/02 07:02:47;;;;;;;14.40;12.20;;;;;;;15.92;51.90;98073.09;106436;1286;24278;-94
2022/05/02 07:05:46;;;;;;;13.30;12.00;;;;;;;15.89;51.76;98078.12;106066;1286;22601;-93
2022/05/02 07:08:37;;;;;;;13.40;12.00;;;;;;;15.91;51.73;98079.64;106349;1285;22555;-93
2022/05/02 07:11:12;;;;;;;14.70;13.20;;;;;;;15.94;51.20;98082.70;106296;1284;24230;-90
2022/05/02 07:14:03;;;;;;;16.60;12.10;;;;;;;15.99;50.92;98079.66;105647;1286;25527;-92
2022/05/02 07:16:37;;;;;;;12.80;11.40;;;;;;;16.07;50.74;98080.73;105654;1286;25235;-91
2022/05/02 07:19:34;;;;;;;20.50;13.10;;;;;;;16.13;50.67;98084.36;106176;1284;25360;-91
2022/05/02 07:22:05;;;;;;;14.90;13.40;;;;;;;16.20;50.54;98085.82;105966;1284;22663;-93
2022/05/02 07:24:58;;;;;;;15.40;13.40;;;;;;;16.25;50.13;98086.52;105945;1284;22607;-92
2022/05/02 07:28:23;;;;;;;19.20;13.80;;;;;;;16.35;50.04;98088.52;105706;1286;22643;-93
2022/05/02 07:30:58;;;;;;;15.20;12.90;;;;;;;16.50;49.81;98086.98;106036;1284;24299;-92
2022/05/02 07:33:34;;;;;;;16.20;12.30;;;;;;;16.60;49.49;98085.79;105840;1284;22617;-92
2022/05/02 07:36:06;;;;;;;14.10;11.10;;;;;;;16.70;49.22;98085.45;105738;1286;24031;-92
2022/05/02 07:38:36;;;;;;;13.30;9.70;;;;;;;16.78;48.48;98080.34;105392;1286;22573;-91
2022/05/02 07:41:27;;;;;;;11.00;9.90;;;;;;;16.87;48.04;98082.05;105310;1286;23162;-92
2022/05/02 07:44:05;;;;;;;9.60;8.60;;;;;;;16.98;47.68;98082.33;105546;1286;22699;-92
2022/05/02 07:46:45;;;;;;;11.60;9.70;;;;;;;17.09;46.53;98081.06;105516;1286;22604;-92
2022/05/02 07:49:16;;;;;;;11.00;9.60;;;;;;;17.17;46.17;98085.01;105555;1286;24169;-92
2022/05/02 07:51:51;;;;;;;13.40;11.10;;;;;;;17.26;46.38;98086.48;105454;1286;24234;-92
2022/05/02 07:54:26;;;;;;;13.20;9.60;;;;;;;17.36;45.93;98085.13;105514;1286;22563;-93
2022/05/02 07:57:04;;;;;;;16.30;10.40;;;;;;;17.46;45.74;98082.80;105484;1286;24176;-92
2022/05/02 07:59:43;;;;;;;13.30;10.10;;;;;;;17.58;45.58;98079.59;105830;1286;22586;-92
2022/05/02 08:02:14;;;;;;;12.90;9.70;;;;;;;17.69;45.27;98075.52;106136;1286;22947;-88
2022/05/02 08:04:44;;;;;;;13.60;10.40;;;;;;;17.79;44.94;98074.67;108499;1286;22553;-93
2022/05/02 08:07:20;;;;;;;13.50;9.40;;;;;;;17.89;44.78;98075.46;108575;1285;22614;-87
2022/05/02 08:10:06;;;;;;;12.80;9.00;;;;;;;18.01;44.77;98072.56;106055;1286;24365;-92
2022/05/02 08:12:39;;;;;;;13.00;10.10;;;;;;;18.09;44.52;98071.58;106135;1286;23861;-90
2022/05/02 08:15:26;;;;;;;21.60;10.40;;;;;;;18.23;44.26;98069.86;107966;1286;25370;-92
2022/05/02 08:18:32;;;;;;;10.00;8.50;;;;;;;18.34;43.60;98072.21;107203;1285;22700;-78
2022/05/02 08:21:05;;;;;;;10.10;8.00;;;;;;;18.55;43.44;98071.88;106033;1286;23153;-77
2022/05/02 08:27:17;;;;;;;9.80;8.50;;;;;;;18.92;43.03;98070.10;104965;1286;22580;-78
2022/05/02 08:30:04;;;;;;;12.20;9.50;;;;;;;19.00;42.44;98070.63;104993;1286;25485;-77
2022/05/02 08:32:44;;;;;;;11.90;9.40;;;;;;;19.06;42.56;98071.80;105141;1285;22832;-79
2022/05/02 08:35:51;;;;;;;9.70;8.50;;;;;;;19.17;42.14;98068.09;105206;1286;22783;-79
2022/05/02 08:38:40;;;;;;;15.20;10.40;;;;;;;19.38;42.16;98060.90;105157;1286;22589;-81
2022/05/02 08:41:08;;;;;;;10.90;8.50;;;;;;;19.55;41.72;98059.60;105136;1286;22634;-83
2022/05/02 08:44:03;;;;;;;13.50;9.10;;;;;;;19.63;41.10;98058.95;105188;1285;25386;-85
2022/05/02 08:46:37;;;;;;;14.50;9.90;;;;;;;19.72;40.39;98054.50;105155;1286;24301;-82
2022/05/02 08:49:43;;;;;;;9.90;8.90;;;;;;;19.76;40.10;98057.86;105140;1286;23345;-84
2022/05/02 08:52:26;;;;;;;10.50;9.50;;;;;;;19.84;40.32;98053.18;105150;1286;23963;-84
2022/05/02 08:55:30;;;;;;;12.40;9.20;;;;;;;19.92;40.40;98050.97;105166;1286;22823;-86
2022/05/02 08:58:23;;;;;;;10.70;9.00;;;;;;;20.00;39.26;98051.23;104344;1293;25377;-84
2022/05/02 09:01:13;;;;;;;11.40;9.70;;;;;;;19.87;39.34;98046.80;104461;1293;22668;-86
2022/05/02 09:04:12;;;;;;;10.10;8.50;;;;;;;19.65;38.79;98045.39;104460;1294;22597;-86
2022/05/02 09:06:46;;;;;;;8.30;7.50;;;;;;;19.47;38.93;98048.48;104427;1294;24637;-85
2022/05/02 09:09:32;;;;;;;8.80;7.90;;;;;;;19.37;38.98;98049.64;104229;1294;24281;-85
2022/05/02 09:12:24;;;;;;;14.70;10.80;;;;;;;19.29;39.11;98042.65;104374;1294;25503;-83
2022/05/02 09:15:11;;;;;;;15.70;8.90;;;;;;;19.20;39.14;98046.17;104308;1294;24404;-84
2022/05/02 09:17:39;;;;;;;11.20;8.50;;;;;;;19.08;38.78;98048.98;104356;1294;22873;-85
2022/05/02 09:20:25;;;;;;;13.60;8.40;;;;;;;19.01;38.51;98045.85;104376;1294;23283;-85
2022/05/02 09:23:11;;;;;;;10.20;8.50;;;;;;;18.97;38.44;98044.11;104764;1294;24360;-86
2022/05/02 09:25:51;;;;;;;9.80;8.60;;;;;;;18.90;38.45;98044.31;104639;1294;22901;-86
2022/05/02 09:28:21;;;;;;;8.80;7.90;;;;;;;18.80;38.35;98042.88;104223;1294;22738;-85
2022/05/02 09:31:07;;;;;;;9.20;6.70;;;;;;;18.77;37.98;98040.31;104377;1294;25353;-84
2022/05/02 09:34:06;;;;;;;8.70;7.10;;;;;;;18.66;37.69;98040.19;104353;1294;22559;-85
2022/05/02 09:37:01;;;;;;;10.10;7.90;;;;;;;18.57;37.95;98043.01;105169;1286;22564;-84
2022/05/02 09:39:47;;;;;;;11.10;10.00;;;;;;;18.54;38.04;98040.20;105177;1286;25503;-85
2022/05/02 09:42:25;;;;;;;12.00;7.90;;;;;;;18.57;37.99;98043.77;105225;1286;22563;-85
2022/05/02 09:51:48;;;;;;;13.50;8.50;;;;;;;18.60;37.70;98036.38;105207;1286;24100;-86
2022/05/02 09:56:37;;;;;;;9.10;8.20;;;;;;;18.58;37.54;98039.21;105158;1286;22572;-85
2022/05/02 09:57:16;;;;;;;9.70;8.20;;;;;;;18.57;37.48;98036.52;105144;1286;22670;-85
2022/05/02 10:01:06;;;;;;;9.70;7.40;;;;;;;18.59;37.54;98032.38;105431;1285;22937;-83
2022/05/02 10:03:28;;;;;;;11.80;8.20;;;;;;;18.81;37.59;98030.34;105459;1285;25472;-84
2022/05/02 10:06:22;;;;;;;10.40;7.70;;;;;;;19.13;37.51;98029.30;105073;1286;22581;-84
2022/05/02 10:08:57;;;;;;;11.00;7.50;;;;;;;19.34;37.12;98022.16;105114;1286;22649;-86
2022/05/02 10:11:39;;;;;;;9.60;7.40;;;;;;;19.49;36.64;98015.04;105190;1286;25417;-84
2022/05/02 10:14:44;;;;;;;11.60;8.20;;;;;;;19.58;36.82;98013.90;105149;1286;23315;-86
2022/05/02 10:17:16;;;;;;;9.40;6.80;;;;;;;19.77;36.69;98010.40;105000;1286;184154;-84
2022/05/02 10:20:14;;;;;;;8.20;6.70;;;;;;;19.95;36.57;98001.39;105209;1286;25381;-86
2022/05/02 10:22:48;;;;;;;10.50;6.70;;;;;;;20.19;36.29;98001.98;105129;1286;25364;-83
2022/05/02 10:25:20;;;;;;;;;;;;;;;20.41;36.39;97999.84;105147;1286;22544;-86
2022/05/02 10:28:02;;;;;;;14.50;7.60;;;;;;;20.63;35.23;97996.48;105010;1286;22567;-84
2022/05/02 10:30:46;;;;;;;9.80;7.50;;;;;;;20.80;35.32;97990.52;105173;1286;23089;-84
2022/05/02 10:33:16;;;;;;;7.80;6.90;;;;;;;20.94;34.83;97989.52;105195;1286;22575;-85
2022/05/02 10:35:47;;;;;;;8.70;7.00;;;;;;;21.03;34.90;97991.86;105207;1286;23317;-84
2022/05/02 10:38:24;;;;;;;8.00;6.30;;;;;;;21.18;34.86;97984.37;105110;1286;25301;-83
2022/05/02 10:41:12;;;;;;;13.20;6.60;;;;;;;21.34;34.38;97978.52;105028;1286;25691;-84
2022/05/02 10:43:48;;;;;;;32.10;28.80;;;;;;;21.41;33.28;97971.90;105089;1286;25432;-84
2022/05/02 10:46:18;;;;;;;12.60;8.70;;;;;;;21.36;32.82;97973.15;104999;1286;25430;-82
2022/05/02 10:48:53;;;;;;;9.50;6.70;;;;;;;21.31;33.12;97970.38;105145;1286;26647;-84
2022/05/02 10:51:30;;;;;;;9.40;8.40;;;;;;;21.25;33.51;97968.96;105054;1286;22709;-84
2022/05/02 10:54:09;;;;;;;18.10;16.20;;;;;;;21.43;33.27;97968.58;105030;1286;22583;-85
2022/05/02 10:57:11;;;;;;;33.90;30.00;;;;;;;21.51;33.34;97966.41;105180;1286;25371;-85
2022/05/02 10:59:45;;;;;;;8.50;7.20;;;;;;;21.72;33.18;97962.71;105089;1286;24298;-85
2022/05/02 11:02:13;;;;;;;;;;;;;;;21.82;32.80;97962.77;105206;1286;22563;-86
2022/05/02 11:05:09;;;;;;;12.70;10.30;;;;;;;21.71;30.26;97961.21;105181;1286;24129;-84
2022/05/02 11:07:55;;;;;;;103.40;81.30;;;;;;;21.35;31.46;97957.62;105066;1286;25530;-85
2022/05/02 11:10:28;;;;;;;21.40;19.40;;;;;;;21.16;32.19;97959.64;105094;1286;25433;-86
2022/05/02 11:13:26;;;;;;;15.20;12.50;;;;;;;21.09;32.16;97956.20;105114;1286;24234;-85
2022/05/02 11:16:09;;;;;;;7.90;6.60;;;;;;;21.06;32.08;97958.48;105002;1286;23981;-85
2022/05/02 11:22:11;;;;;;;7.90;6.20;;;;;;;21.12;31.53;97953.81;105092;1286;24292;-86
2022/05/02 11:24:47;;;;;;;7.10;5.70;;;;;;;21.41;31.82;97949.96;105009;1286;24245;-86
2022/05/02 11:27:37;;;;;;;9.00;6.20;;;;;;;21.67;31.57;97950.04;105134;1286;22720;-85
2022/05/02 11:30:10;;;;;;;7.20;6.40;;;;;;;21.85;31.40;97946.29;105132;1286;22534;-83
2022/05/02 11:33:09;;;;;;;7.40;5.70;;;;;;;22.10;31.25;97944.64;105037;1286;25486;-85
2022/05/02 11:35:38;;;;;;;10.60;5.50;;;;;;;22.28;30.26;97942.83;104956;1287;22566;-86
2022/05/02 11:38:11;;;;;;;6.20;5.60;;;;;;;22.33;30.69;97939.98;105104;1286;22697;-86
2022/05/02 11:40:46;;;;;;;13.30;5.80;;;;;;;22.52;29.72;97935.33;105690;1286;23955;-86
2022/05/02 11:43:18;;;;;;;7.00;6.00;;;;;;;22.64;30.26;97935.13;105101;1286;22487;-86
2022/05/02 11:45:57;;;;;;;7.10;6.40;;;;;;;22.74;30.20;97932.23;105078;1286;22582;-85
2022/05/02 11:48:45;;;;;;;8.70;6.80;;;;;;;22.67;29.64;97929.44;105146;1286;22586;-84
2022/05/02 11:51:26;;;;;;;7.90;5.80;;;;;;;22.58;30.33;97927.92;105083;1286;24390;-84
2022/05/02 11:53:57;;;;;;;16.20;6.70;;;;;;;22.48;30.00;97929.64;105131;1286;25384;-86
2022/05/02 11:56:40;;;;;;;10.10;5.80;;;;;;;22.34;30.33;97934.35;105015;1286;23956;-84
2022/05/02 11:59:16;;;;;;;10.30;5.80;;;;;;;22.17;29.03;97931.86;105146;1286;22765;-86
2022/05/02 12:01:49;;;;;;;8.20;6.30;;;;;;;21.93;29.51;97930.48;105003;1286;24496;-85
2022/05/02 12:04:24;;;;;;;8.50;6.30;;;;;;;21.80;29.77;97926.94;105078;1286;22569;-86
2022/05/02 12:07:08;;;;;;;8.00;5.70;;;;;;;21.63;29.76;97926.16;105182;1286;22652;-85
2022/05/02 12:09:38;;;;;;;8.00;5.80;;;;;;;21.49;29.77;97925.02;105157;1285;23949;-84
2022/05/02 12:12:07;;;;;;;9.00;6.60;;;;;;;21.40;29.96;97920.36;105211;1286;22565;-85
2022/05/02 12:14:36;;;;;;;7.80;5.90;;;;;;;21.43;30.26;97920.09;105133;1286;25465;-83
2022/05/02 12:17:11;;;;;;;11.40;6.90;;;;;;;21.34;29.40;97917.20;105139;1286;22648;-86
2022/05/02 12:19:41;;;;;;;7.00;5.80;;;;;;;21.20;29.69;97911.11;105135;1286;25387;-86
2022/05/02 12:22:16;;;;;;;10.40;7.40;;;;;;;21.09;29.44;97912.19;105218;1286;22593;-87
2022/05/02 12:24:48;;;;;;;8.00;6.70;;;;;;;20.98;29.68;97911.23;105149;1286;22703;-87
2022/05/02 12:27:19;;;;;;;6.60;5.60;;;;;;;20.87;29.24;97907.30;104957;1286;25379;-86
2022/05/02 12:29:58;;;;;;;6.90;5.70;;;;;;;20.72;29.53;97906.27;105225;1286;22615;-86
2022/05/02 12:32:31;;;;;;;6.40;5.30;;;;;;;20.56;29.68;97904.77;105231;1285;25463;-85
2022/05/02 12:35:03;;;;;;;9.60;6.30;;;;;;;20.53;29.82;97903.51;105245;1286;22787;-86
2022/05/02 12:37:33;;;;;;;6.70;6.00;;;;;;;20.55;30.04;97900.74;105181;1286;24220;-87
2022/05/02 12:40:18;;;;;;;8.30;6.40;;;;;;;20.62;30.11;97894.29;105191;1286;24101;-83